Accueil
METAR-TAF:

METAR-TAF

Aéroports :

Aéroport Agen-La Garenne

Agen, France

latitude: 44-11N, longitude: 000-36E, altitude: 61 m

Observation

Le bulletin a été fait il y a 27 minutes, à 05:30 UTC
Vent 5 kt de ouest
Température 6°C
Humidité 93%
Pression 1017 hPa
Visibilité: 6000 m

METAR: LFBA 080530Z AUTO 28005KT 6000 NSC 06/05 Q1017

Heure: 06:57 (05:57 UTC)

Prévision

Le bulletin a été fait il y a 57 minutes, à 05:00 UTC
Prévision valable du 08 à 06 UTC au 08 à 15 UTC
Vent 8 kt de ouest/nord-ouest
Visibilité 10 km ou plus
Nuages épars à une hauteur de 3000 ft
Probabilité 40%
du 08 à 06 UTC au 08 à 08 UTC
Visibilité: 2000 m
brume
Probabilité 30% :
Temporairement
du 08 à 11 UTC au 08 à 15 UTC
Visibilité: 4000 m
Nuages fragmentés à une hauteur de 2500 ft, Cumulus congestus.
faibles averses de pluie

TAF: LFBA 080500Z 0806/0815 30008KT 9999 SCT030 PROB40 0806/0808 2000 BR PROB30 TEMPO 0811/0815 4000 -SHRA BKN025TCU

Observations et prévisions météorologiques de plus de 4000 aéroports (messages METAR et TAF).

Les stations disponibles sont représentées par des disques jaunes et rouges sur la carte.

Passer la souris dessus pour voir le nom de la station.

Cliquer dessus pour voir les observations et prévisions météorologiques.

Pour changer de carte: cliquez sur les boutons verts avec une croix noire pour zoomer, sur le bouton vert avec un tiret pour effectuer un zoom arrière, ou sur les flèches vertes pour les cartes adjacentes.


METAR-TAF: